sensor_id;sensor_type;location;lat;lon;timestamp;temperature;humidity
10314;DHT22;5202;49.138;10.090;2022-07-19T00:00:18;18.30;65.40
10314;DHT22;5202;49.138;10.090;2022-07-19T00:02:49;18.30;65.40
10314;DHT22;5202;49.138;10.090;2022-07-19T00:05:19;18.20;65.80
10314;DHT22;5202;49.138;10.090;2022-07-19T00:07:48;18.20;66.40
10314;DHT22;5202;49.138;10.090;2022-07-19T00:10:18;18.20;66.20
10314;DHT22;5202;49.138;10.090;2022-07-19T00:12:47;18.10;66.50
10314;DHT22;5202;49.138;10.090;2022-07-19T00:15:16;18.10;66.80
10314;DHT22;5202;49.138;10.090;2022-07-19T00:17:49;18.10;66.70
10314;DHT22;5202;49.138;10.090;2022-07-19T00:20:19;18.00;66.30
10314;DHT22;5202;49.138;10.090;2022-07-19T00:22:49;18.00;67.20
10314;DHT22;5202;49.138;10.090;2022-07-19T00:25:17;17.90;67.70
10314;DHT22;5202;49.138;10.090;2022-07-19T00:27:46;17.80;68.50
10314;DHT22;5202;49.138;10.090;2022-07-19T00:30:14;17.60;68.80
10314;DHT22;5202;49.138;10.090;2022-07-19T00:32:43;17.50;69.00
10314;DHT22;5202;49.138;10.090;2022-07-19T00:35:12;17.30;68.90
10314;DHT22;5202;49.138;10.090;2022-07-19T00:37:41;17.30;69.10
10314;DHT22;5202;49.138;10.090;2022-07-19T00:40:15;17.30;69.60
10314;DHT22;5202;49.138;10.090;2022-07-19T00:42:49;17.30;69.20
10314;DHT22;5202;49.138;10.090;2022-07-19T00:45:17;17.30;69.10
10314;DHT22;5202;49.138;10.090;2022-07-19T00:47:46;17.40;69.40
10314;DHT22;5202;49.138;10.090;2022-07-19T00:50:16;17.40;69.20
10314;DHT22;5202;49.138;10.090;2022-07-19T00:52:47;17.40;69.00
10314;DHT22;5202;49.138;10.090;2022-07-19T00:55:18;17.40;69.30
10314;DHT22;5202;49.138;10.090;2022-07-19T00:57:48;17.30;69.70
10314;DHT22;5202;49.138;10.090;2022-07-19T01:00:17;17.30;70.30
10314;DHT22;5202;49.138;10.090;2022-07-19T01:02:45;17.20;70.50
10314;DHT22;5202;49.138;10.090;2022-07-19T01:05:15;17.20;71.00
10314;DHT22;5202;49.138;10.090;2022-07-19T01:07:44;17.10;71.40
10314;DHT22;5202;49.138;10.090;2022-07-19T01:10:14;16.90;71.80
10314;DHT22;5202;49.138;10.090;2022-07-19T01:12:43;16.90;72.20
10314;DHT22;5202;49.138;10.090;2022-07-19T01:15:14;16.80;72.60
10314;DHT22;5202;49.138;10.090;2022-07-19T01:17:44;16.70;72.80
10314;DHT22;5202;49.138;10.090;2022-07-19T01:20:15;16.70;72.80
10314;DHT22;5202;49.138;10.090;2022-07-19T01:22:46;16.70;73.00
10314;DHT22;5202;49.138;10.090;2022-07-19T01:25:23;16.70;73.70
10314;DHT22;5202;49.138;10.090;2022-07-19T01:27:56;16.70;73.50
10314;DHT22;5202;49.138;10.090;2022-07-19T01:30:50;16.70;73.60
10314;DHT22;5202;49.138;10.090;2022-07-19T01:33:18;16.80;74.10
10314;DHT22;5202;49.138;10.090;2022-07-19T01:35:47;16.70;73.70
10314;DHT22;5202;49.138;10.090;2022-07-19T01:38:16;16.60;73.70
10314;DHT22;5202;49.138;10.090;2022-07-19T01:40:45;16.50;74.00
10314;DHT22;5202;49.138;10.090;2022-07-19T01:43:13;16.50;74.60
10314;DHT22;5202;49.138;10.090;2022-07-19T01:45:41;16.50;75.00
10314;DHT22;5202;49.138;10.090;2022-07-19T01:48:09;16.40;75.30
10314;DHT22;5202;49.138;10.090;2022-07-19T01:50:38;16.30;75.60
10314;DHT22;5202;49.138;10.090;2022-07-19T01:53:06;16.20;76.40
10314;DHT22;5202;49.138;10.090;2022-07-19T01:55:36;16.10;76.90
10314;DHT22;5202;49.138;10.090;2022-07-19T01:58:04;16.00;76.80
10314;DHT22;5202;49.138;10.090;2022-07-19T02:00:33;16.00;77.00
10314;DHT22;5202;49.138;10.090;2022-07-19T02:03:01;16.00;77.50
10314;DHT22;5202;49.138;10.090;2022-07-19T02:05:29;16.00;77.50
10314;DHT22;5202;49.138;10.090;2022-07-19T02:08:00;16.00;77.20
10314;DHT22;5202;49.138;10.090;2022-07-19T02:10:29;16.00;77.40
10314;DHT22;5202;49.138;10.090;2022-07-19T02:12:58;15.90;78.20
10314;DHT22;5202;49.138;10.090;2022-07-19T02:15:27;15.90;78.80
10314;DHT22;5202;49.138;10.090;2022-07-19T02:17:55;15.90;79.30
10314;DHT22;5202;49.138;10.090;2022-07-19T02:20:24;16.00;79.00
10314;DHT22;5202;49.138;10.090;2022-07-19T02:22:52;16.10;78.70
10314;DHT22;5202;49.138;10.090;2022-07-19T02:25:21;16.20;78.50
10314;DHT22;5202;49.138;10.090;2022-07-19T02:27:50;16.20;78.60
10314;DHT22;5202;49.138;10.090;2022-07-19T02:30:21;16.00;79.10
10314;DHT22;5202;49.138;10.090;2022-07-19T02:32:50;15.90;79.60
10314;DHT22;5202;49.138;10.090;2022-07-19T02:35:24;15.70;80.50
10314;DHT22;5202;49.138;10.090;2022-07-19T02:37:53;15.60;80.80
10314;DHT22;5202;49.138;10.090;2022-07-19T02:40:21;15.50;80.70
10314;DHT22;5202;49.138;10.090;2022-07-19T02:42:50;15.50;81.50
10314;DHT22;5202;49.138;10.090;2022-07-19T02:45:18;15.60;81.30
10314;DHT22;5202;49.138;10.090;2022-07-19T02:47:48;15.60;81.00
10314;DHT22;5202;49.138;10.090;2022-07-19T02:50:16;15.60;80.90
10314;DHT22;5202;49.138;10.090;2022-07-19T02:52:44;15.50;81.00
10314;DHT22;5202;49.138;10.090;2022-07-19T02:55:13;15.50;81.20
10314;DHT22;5202;49.138;10.090;2022-07-19T02:57:41;15.40;81.70
10314;DHT22;5202;49.138;10.090;2022-07-19T03:00:10;15.40;81.80
10314;DHT22;5202;49.138;10.090;2022-07-19T03:02:40;15.30;82.20
10314;DHT22;5202;49.138;10.090;2022-07-19T03:05:09;15.20;82.80
10314;DHT22;5202;49.138;10.090;2022-07-19T03:07:38;15.20;83.00
10314;DHT22;5202;49.138;10.090;2022-07-19T03:10:07;15.20;83.10
10314;DHT22;5202;49.138;10.090;2022-07-19T03:12:36;15.30;83.20
10314;DHT22;5202;49.138;10.090;2022-07-19T03:15:05;15.30;83.10
10314;DHT22;5202;49.138;10.090;2022-07-19T03:17:34;15.30;83.20
10314;DHT22;5202;49.138;10.090;2022-07-19T03:20:03;15.20;83.20
10314;DHT22;5202;49.138;10.090;2022-07-19T03:22:33;15.10;84.10
10314;DHT22;5202;49.138;10.090;2022-07-19T03:25:02;15.00;84.70
10314;DHT22;5202;49.138;10.090;2022-07-19T03:27:30;15.00;84.80
10314;DHT22;5202;49.138;10.090;2022-07-19T03:29:59;15.00;85.30
10314;DHT22;5202;49.138;10.090;2022-07-19T03:32:29;15.00;85.20
10314;DHT22;5202;49.138;10.090;2022-07-19T03:34:57;15.00;85.10
10314;DHT22;5202;49.138;10.090;2022-07-19T03:37:26;14.90;85.50
10314;DHT22;5202;49.138;10.090;2022-07-19T03:39:55;14.80;86.80
10314;DHT22;5202;49.138;10.090;2022-07-19T03:42:24;14.80;86.70
10314;DHT22;5202;49.138;10.090;2022-07-19T03:44:52;14.60;86.70
10314;DHT22;5202;49.138;10.090;2022-07-19T03:47:20;14.60;87.00
10314;DHT22;5202;49.138;10.090;2022-07-19T03:49:49;14.60;87.30
10314;DHT22;5202;49.138;10.090;2022-07-19T03:52:17;14.60;87.80
10314;DHT22;5202;49.138;10.090;2022-07-19T03:54:45;14.70;87.70
10314;DHT22;5202;49.138;10.090;2022-07-19T03:57:15;14.80;87.60
10314;DHT22;5202;49.138;10.090;2022-07-19T03:59:43;14.80;87.50
10314;DHT22;5202;49.138;10.090;2022-07-19T04:02:11;14.90;87.40
10314;DHT22;5202;49.138;10.090;2022-07-19T04:04:40;15.00;87.40
10314;DHT22;5202;49.138;10.090;2022-07-19T04:07:09;14.90;87.10
10314;DHT22;5202;49.138;10.090;2022-07-19T04:09:37;15.00;87.40
10314;DHT22;5202;49.138;10.090;2022-07-19T04:12:05;14.90;87.60
10314;DHT22;5202;49.138;10.090;2022-07-19T04:14:35;14.90;87.70
10314;DHT22;5202;49.138;10.090;2022-07-19T04:17:03;14.80;88.00
10314;DHT22;5202;49.138;10.090;2022-07-19T04:19:32;14.90;88.10
10314;DHT22;5202;49.138;10.090;2022-07-19T04:22:02;14.90;88.30
10314;DHT22;5202;49.138;10.090;2022-07-19T04:24:30;15.00;88.40
10314;DHT22;5202;49.138;10.090;2022-07-19T04:26:59;15.10;88.50
10314;DHT22;5202;49.138;10.090;2022-07-19T04:29:27;15.10;88.30
10314;DHT22;5202;49.138;10.090;2022-07-19T04:31:57;15.10;88.50
10314;DHT22;5202;49.138;10.090;2022-07-19T04:34:25;15.10;89.20
10314;DHT22;5202;49.138;10.090;2022-07-19T04:36:54;15.20;90.00
10314;DHT22;5202;49.138;10.090;2022-07-19T04:39:22;15.30;90.30
10314;DHT22;5202;49.138;10.090;2022-07-19T04:41:50;15.30;90.30
10314;DHT22;5202;49.138;10.090;2022-07-19T04:44:18;15.40;90.50
10314;DHT22;5202;49.138;10.090;2022-07-19T04:46:47;15.50;90.40
10314;DHT22;5202;49.138;10.090;2022-07-19T04:49:17;15.60;90.30
10314;DHT22;5202;49.138;10.090;2022-07-19T04:51:45;15.70;90.30
10314;DHT22;5202;49.138;10.090;2022-07-19T04:54:13;15.80;90.20
10314;DHT22;5202;49.138;10.090;2022-07-19T04:56:41;15.90;89.50
10314;DHT22;5202;49.138;10.090;2022-07-19T04:59:10;16.10;88.60
10314;DHT22;5202;49.138;10.090;2022-07-19T05:01:38;16.20;88.70
10314;DHT22;5202;49.138;10.090;2022-07-19T05:04:06;16.30;88.70
10314;DHT22;5202;49.138;10.090;2022-07-19T05:06:36;16.50;88.80
10314;DHT22;5202;49.138;10.090;2022-07-19T05:09:04;16.60;88.60
10314;DHT22;5202;49.138;10.090;2022-07-19T05:11:33;16.80;88.40
10314;DHT22;5202;49.138;10.090;2022-07-19T05:14:01;17.00;88.80
10314;DHT22;5202;49.138;10.090;2022-07-19T05:16:30;17.10;90.20
10314;DHT22;5202;49.138;10.090;2022-07-19T05:18:59;17.30;90.80
10314;DHT22;5202;49.138;10.090;2022-07-19T05:21:27;17.40;91.10
10314;DHT22;5202;49.138;10.090;2022-07-19T05:23:57;17.60;91.70
10314;DHT22;5202;49.138;10.090;2022-07-19T05:26:25;17.70;92.00
10314;DHT22;5202;49.138;10.090;2022-07-19T05:28:53;17.80;92.10
10314;DHT22;5202;49.138;10.090;2022-07-19T05:31:25;17.90;91.70
10314;DHT22;5202;49.138;10.090;2022-07-19T05:33:54;18.10;91.00
10314;DHT22;5202;49.138;10.090;2022-07-19T05:36:22;18.20;90.40
10314;DHT22;5202;49.138;10.090;2022-07-19T05:38:50;18.40;90.90
10314;DHT22;5202;49.138;10.090;2022-07-19T05:41:21;18.60;90.10
10314;DHT22;5202;49.138;10.090;2022-07-19T05:43:51;18.70;89.40
10314;DHT22;5202;49.138;10.090;2022-07-19T05:46:20;18.80;86.70
10314;DHT22;5202;49.138;10.090;2022-07-19T05:48:48;19.00;83.90
10314;DHT22;5202;49.138;10.090;2022-07-19T05:51:17;19.10;83.90
10314;DHT22;5202;49.138;10.090;2022-07-19T05:53:45;19.30;84.90
10314;DHT22;5202;49.138;10.090;2022-07-19T05:56:13;19.50;82.40
10314;DHT22;5202;49.138;10.090;2022-07-19T05:58:43;19.70;80.80
10314;DHT22;5202;49.138;10.090;2022-07-19T06:01:11;19.90;79.80
10314;DHT22;5202;49.138;10.090;2022-07-19T06:03:56;20.10;79.50
10314;DHT22;5202;49.138;10.090;2022-07-19T06:06:28;20.30;78.60
10314;DHT22;5202;49.138;10.090;2022-07-19T06:08:58;20.50;77.50
10314;DHT22;5202;49.138;10.090;2022-07-19T06:11:27;20.70;79.00
10314;DHT22;5202;49.138;10.090;2022-07-19T06:13:57;20.90;79.00
10314;DHT22;5202;49.138;10.090;2022-07-19T06:16:26;21.10;79.80
10314;DHT22;5202;49.138;10.090;2022-07-19T06:18:55;21.20;80.10
10314;DHT22;5202;49.138;10.090;2022-07-19T06:21:23;21.30;78.20
10314;DHT22;5202;49.138;10.090;2022-07-19T06:23:52;21.50;77.80
10314;DHT22;5202;49.138;10.090;2022-07-19T06:26:20;21.70;77.60
10314;DHT22;5202;49.138;10.090;2022-07-19T06:28:49;21.90;78.80
10314;DHT22;5202;49.138;10.090;2022-07-19T06:31:19;22.10;77.20
10314;DHT22;5202;49.138;10.090;2022-07-19T06:33:49;22.30;74.90
10314;DHT22;5202;49.138;10.090;2022-07-19T06:36:19;22.40;73.30
10314;DHT22;5202;49.138;10.090;2022-07-19T06:38:48;22.70;71.50
10314;DHT22;5202;49.138;10.090;2022-07-19T06:41:17;22.90;70.50
10314;DHT22;5202;49.138;10.090;2022-07-19T06:43:45;23.00;68.20
10314;DHT22;5202;49.138;10.090;2022-07-19T06:46:13;23.20;68.40
10314;DHT22;5202;49.138;10.090;2022-07-19T06:48:43;23.50;67.40
10314;DHT22;5202;49.138;10.090;2022-07-19T06:51:11;23.70;66.20
10314;DHT22;5202;49.138;10.090;2022-07-19T06:53:40;23.80;65.20
10314;DHT22;5202;49.138;10.090;2022-07-19T06:56:10;24.00;63.50
10314;DHT22;5202;49.138;10.090;2022-07-19T06:58:39;24.20;60.20
10314;DHT22;5202;49.138;10.090;2022-07-19T07:01:08;24.40;59.30
10314;DHT22;5202;49.138;10.090;2022-07-19T07:03:37;24.60;58.60
10314;DHT22;5202;49.138;10.090;2022-07-19T07:06:07;24.80;58.90
10314;DHT22;5202;49.138;10.090;2022-07-19T07:08:35;24.90;57.40
10314;DHT22;5202;49.138;10.090;2022-07-19T07:11:04;25.10;57.80
10314;DHT22;5202;49.138;10.090;2022-07-19T07:13:32;25.30;58.60
10314;DHT22;5202;49.138;10.090;2022-07-19T07:16:01;25.50;57.20
10314;DHT22;5202;49.138;10.090;2022-07-19T07:18:29;25.60;56.60
10314;DHT22;5202;49.138;10.090;2022-07-19T07:20:58;25.80;58.10
10314;DHT22;5202;49.138;10.090;2022-07-19T07:23:28;26.00;54.90
10314;DHT22;5202;49.138;10.090;2022-07-19T07:25:56;26.10;55.30
10314;DHT22;5202;49.138;10.090;2022-07-19T07:28:25;26.30;54.60
10314;DHT22;5202;49.138;10.090;2022-07-19T07:30:54;26.40;54.00
10314;DHT22;5202;49.138;10.090;2022-07-19T07:33:23;26.60;54.00
10314;DHT22;5202;49.138;10.090;2022-07-19T07:35:51;26.70;52.40
10314;DHT22;5202;49.138;10.090;2022-07-19T07:38:21;26.80;51.70
10314;DHT22;5202;49.138;10.090;2022-07-19T07:40:51;26.90;52.00
10314;DHT22;5202;49.138;10.090;2022-07-19T07:43:39;27.10;51.30
10314;DHT22;5202;49.138;10.090;2022-07-19T07:46:07;27.20;50.50
10314;DHT22;5202;49.138;10.090;2022-07-19T07:48:36;27.30;49.10
10314;DHT22;5202;49.138;10.090;2022-07-19T07:51:04;27.40;49.80
10314;DHT22;5202;49.138;10.090;2022-07-19T07:53:53;27.50;49.90
10314;DHT22;5202;49.138;10.090;2022-07-19T07:56:23;27.70;49.00
10314;DHT22;5202;49.138;10.090;2022-07-19T07:58:52;27.80;48.80
10314;DHT22;5202;49.138;10.090;2022-07-19T08:01:21;27.80;48.30
10314;DHT22;5202;49.138;10.090;2022-07-19T08:04:03;27.90;48.00
10314;DHT22;5202;49.138;10.090;2022-07-19T08:06:33;28.00;46.90
10314;DHT22;5202;49.138;10.090;2022-07-19T08:09:02;28.10;47.00
10314;DHT22;5202;49.138;10.090;2022-07-19T08:11:34;28.20;47.40
10314;DHT22;5202;49.138;10.090;2022-07-19T08:14:03;28.30;46.60
10314;DHT22;5202;49.138;10.090;2022-07-19T08:16:32;28.40;45.90
10314;DHT22;5202;49.138;10.090;2022-07-19T08:19:01;28.60;47.10
10314;DHT22;5202;49.138;10.090;2022-07-19T08:21:31;28.70;45.50
10314;DHT22;5202;49.138;10.090;2022-07-19T08:24:00;28.80;45.30
10314;DHT22;5202;49.138;10.090;2022-07-19T08:26:36;28.90;45.10
10314;DHT22;5202;49.138;10.090;2022-07-19T08:29:04;29.00;45.00
10314;DHT22;5202;49.138;10.090;2022-07-19T08:31:34;29.10;45.30
10314;DHT22;5202;49.138;10.090;2022-07-19T08:34:04;29.20;44.50
10314;DHT22;5202;49.138;10.090;2022-07-19T08:36:32;29.20;42.60
10314;DHT22;5202;49.138;10.090;2022-07-19T08:39:01;29.20;42.50
10314;DHT22;5202;49.138;10.090;2022-07-19T08:41:31;29.30;42.20
10314;DHT22;5202;49.138;10.090;2022-07-19T08:44:04;29.30;41.30
10314;DHT22;5202;49.138;10.090;2022-07-19T08:46:33;29.50;42.70
10314;DHT22;5202;49.138;10.090;2022-07-19T08:49:02;29.50;41.40
10314;DHT22;5202;49.138;10.090;2022-07-19T08:51:30;29.60;42.20
10314;DHT22;5202;49.138;10.090;2022-07-19T08:53:59;29.80;41.50
10314;DHT22;5202;49.138;10.090;2022-07-19T08:56:28;29.90;40.20
10314;DHT22;5202;49.138;10.090;2022-07-19T08:59:15;29.90;40.80
10314;DHT22;5202;49.138;10.090;2022-07-19T09:01:44;30.00;39.70
10314;DHT22;5202;49.138;10.090;2022-07-19T09:04:14;30.00;39.30
10314;DHT22;5202;49.138;10.090;2022-07-19T09:06:45;30.00;39.80
10314;DHT22;5202;49.138;10.090;2022-07-19T09:09:16;30.00;39.40
10314;DHT22;5202;49.138;10.090;2022-07-19T09:11:47;30.10;39.70
10314;DHT22;5202;49.138;10.090;2022-07-19T09:14:21;30.20;40.00
10314;DHT22;5202;49.138;10.090;2022-07-19T09:17:00;30.20;38.80
10314;DHT22;5202;49.138;10.090;2022-07-19T09:19:55;30.30;39.30
10314;DHT22;5202;49.138;10.090;2022-07-19T09:22:23;30.30;39.40
10314;DHT22;5202;49.138;10.090;2022-07-19T09:24:53;30.50;40.10
10314;DHT22;5202;49.138;10.090;2022-07-19T09:27:23;30.60;39.20
10314;DHT22;5202;49.138;10.090;2022-07-19T09:29:55;30.60;38.80
10314;DHT22;5202;49.138;10.090;2022-07-19T09:32:26;30.60;39.50
10314;DHT22;5202;49.138;10.090;2022-07-19T09:34:59;30.70;38.70
10314;DHT22;5202;49.138;10.090;2022-07-19T09:37:30;30.80;39.50
10314;DHT22;5202;49.138;10.090;2022-07-19T09:40:02;30.80;39.50
10314;DHT22;5202;49.138;10.090;2022-07-19T09:42:37;30.90;40.10
10314;DHT22;5202;49.138;10.090;2022-07-19T09:45:10;31.00;39.30
10314;DHT22;5202;49.138;10.090;2022-07-19T09:47:43;31.20;40.40
10314;DHT22;5202;49.138;10.090;2022-07-19T09:50:13;31.20;38.70
10314;DHT22;5202;49.138;10.090;2022-07-19T09:52:45;31.20;39.20
10314;DHT22;5202;49.138;10.090;2022-07-19T09:55:16;31.30;39.50
10314;DHT22;5202;49.138;10.090;2022-07-19T09:57:47;31.30;39.40
10314;DHT22;5202;49.138;10.090;2022-07-19T10:00:20;31.40;39.20
10314;DHT22;5202;49.138;10.090;2022-07-19T10:02:52;31.30;38.30
10314;DHT22;5202;49.138;10.090;2022-07-19T10:05:23;31.20;38.90
10314;DHT22;5202;49.138;10.090;2022-07-19T10:07:52;31.20;38.40
10314;DHT22;5202;49.138;10.090;2022-07-19T10:10:22;31.10;38.10
10314;DHT22;5202;49.138;10.090;2022-07-19T10:12:52;31.20;38.90
10314;DHT22;5202;49.138;10.090;2022-07-19T10:15:22;31.30;39.00
10314;DHT22;5202;49.138;10.090;2022-07-19T10:18:03;31.40;37.90
10314;DHT22;5202;49.138;10.090;2022-07-19T10:20:38;31.40;38.70
10314;DHT22;5202;49.138;10.090;2022-07-19T10:23:07;31.50;38.10
10314;DHT22;5202;49.138;10.090;2022-07-19T10:25:41;31.60;37.90
10314;DHT22;5202;49.138;10.090;2022-07-19T10:28:31;31.80;38.90
10314;DHT22;5202;49.138;10.090;2022-07-19T10:31:27;31.90;37.70
10314;DHT22;5202;49.138;10.090;2022-07-19T10:33:59;31.90;38.10
10314;DHT22;5202;49.138;10.090;2022-07-19T10:36:33;32.10;38.80
10314;DHT22;5202;49.138;10.090;2022-07-19T10:39:26;32.20;38.50
10314;DHT22;5202;49.138;10.090;2022-07-19T10:42:17;32.30;34.50
10314;DHT22;5202;49.138;10.090;2022-07-19T10:45:09;32.30;35.80
10314;DHT22;5202;49.138;10.090;2022-07-19T10:48:00;32.30;35.50
10314;DHT22;5202;49.138;10.090;2022-07-19T10:50:56;32.40;35.30
10314;DHT22;5202;49.138;10.090;2022-07-19T10:53:59;32.50;36.50
10314;DHT22;5202;49.138;10.090;2022-07-19T10:56:35;32.60;37.50
10314;DHT22;5202;49.138;10.090;2022-07-19T10:59:33;32.70;36.50
10314;DHT22;5202;49.138;10.090;2022-07-19T11:02:05;32.90;34.50
10314;DHT22;5202;49.138;10.090;2022-07-19T11:04:55;32.90;35.40
10314;DHT22;5202;49.138;10.090;2022-07-19T11:07:24;33.00;34.50
10314;DHT22;5202;49.138;10.090;2022-07-19T11:09:54;33.00;35.40
10314;DHT22;5202;49.138;10.090;2022-07-19T11:12:25;33.10;33.30
10314;DHT22;5202;49.138;10.090;2022-07-19T11:14:56;33.00;34.20
10314;DHT22;5202;49.138;10.090;2022-07-19T11:17:54;33.00;33.10
10314;DHT22;5202;49.138;10.090;2022-07-19T11:20:26;33.10;33.60
10314;DHT22;5202;49.138;10.090;2022-07-19T11:22:56;33.20;33.40
10314;DHT22;5202;49.138;10.090;2022-07-19T11:25:28;33.30;33.60
10314;DHT22;5202;49.138;10.090;2022-07-19T11:27:59;33.50;34.10
10314;DHT22;5202;49.138;10.090;2022-07-19T11:30:30;33.60;32.80
10314;DHT22;5202;49.138;10.090;2022-07-19T11:33:01;33.60;34.20
10314;DHT22;5202;49.138;10.090;2022-07-19T11:35:33;33.70;33.60
10314;DHT22;5202;49.138;10.090;2022-07-19T11:38:03;33.80;31.70
10314;DHT22;5202;49.138;10.090;2022-07-19T11:40:33;33.90;31.90
10314;DHT22;5202;49.138;10.090;2022-07-19T11:43:06;33.90;32.60
10314;DHT22;5202;49.138;10.090;2022-07-19T11:45:47;34.00;31.90
10314;DHT22;5202;49.138;10.090;2022-07-19T11:48:25;34.00;33.00
10314;DHT22;5202;49.138;10.090;2022-07-19T11:51:01;34.10;31.40
10314;DHT22;5202;49.138;10.090;2022-07-19T11:53:33;34.20;32.40
10314;DHT22;5202;49.138;10.090;2022-07-19T11:56:06;34.20;32.10
10314;DHT22;5202;49.138;10.090;2022-07-19T11:58:45;34.30;31.50
10314;DHT22;5202;49.138;10.090;2022-07-19T12:01:14;34.30;32.00
10314;DHT22;5202;49.138;10.090;2022-07-19T12:03:56;34.50;33.20
10314;DHT22;5202;49.138;10.090;2022-07-19T12:06:36;34.60;30.40
10314;DHT22;5202;49.138;10.090;2022-07-19T12:09:09;34.50;30.20
10314;DHT22;5202;49.138;10.090;2022-07-19T12:11:41;34.50;31.60
10314;DHT22;5202;49.138;10.090;2022-07-19T12:14:18;34.70;31.20
10314;DHT22;5202;49.138;10.090;2022-07-19T12:16:50;34.90;32.90
10314;DHT22;5202;49.138;10.090;2022-07-19T12:19:43;35.00;32.10
10314;DHT22;5202;49.138;10.090;2022-07-19T12:22:33;35.20;32.70
10314;DHT22;5202;49.138;10.090;2022-07-19T12:25:06;35.40;31.70
10314;DHT22;5202;49.138;10.090;2022-07-19T12:27:35;35.40;30.70
10314;DHT22;5202;49.138;10.090;2022-07-19T12:30:05;35.50;30.70
10314;DHT22;5202;49.138;10.090;2022-07-19T12:32:36;35.40;30.40
10314;DHT22;5202;49.138;10.090;2022-07-19T12:35:08;35.40;30.70
10314;DHT22;5202;49.138;10.090;2022-07-19T12:37:42;35.40;29.90
10314;DHT22;5202;49.138;10.090;2022-07-19T12:40:14;35.50;30.80
10314;DHT22;5202;49.138;10.090;2022-07-19T12:42:48;35.50;29.50
10314;DHT22;5202;49.138;10.090;2022-07-19T12:45:22;35.50;29.40
10314;DHT22;5202;49.138;10.090;2022-07-19T12:47:51;35.50;30.30
10314;DHT22;5202;49.138;10.090;2022-07-19T12:50:22;35.70;32.90
10314;DHT22;5202;49.138;10.090;2022-07-19T12:52:54;35.90;30.40
10314;DHT22;5202;49.138;10.090;2022-07-19T12:55:25;36.00;30.50
10314;DHT22;5202;49.138;10.090;2022-07-19T12:57:55;35.80;29.40
10314;DHT22;5202;49.138;10.090;2022-07-19T13:00:25;35.80;29.70
10314;DHT22;5202;49.138;10.090;2022-07-19T13:02:56;35.80;30.00
10314;DHT22;5202;49.138;10.090;2022-07-19T13:05:25;35.90;29.60
10314;DHT22;5202;49.138;10.090;2022-07-19T13:07:56;35.90;29.40
10314;DHT22;5202;49.138;10.090;2022-07-19T13:10:25;36.10;30.70
10314;DHT22;5202;49.138;10.090;2022-07-19T13:12:55;36.40;30.60
10314;DHT22;5202;49.138;10.090;2022-07-19T13:15:24;36.60;30.60
10314;DHT22;5202;49.138;10.090;2022-07-19T13:17:52;36.80;30.00
10314;DHT22;5202;49.138;10.090;2022-07-19T13:20:26;36.80;30.10
10314;DHT22;5202;49.138;10.090;2022-07-19T13:22:56;36.80;29.40
10314;DHT22;5202;49.138;10.090;2022-07-19T13:25:25;36.70;29.50
10314;DHT22;5202;49.138;10.090;2022-07-19T13:28:11;36.70;30.00
10314;DHT22;5202;49.138;10.090;2022-07-19T13:30:40;36.70;30.00
10314;DHT22;5202;49.138;10.090;2022-07-19T13:33:10;36.70;30.00
10314;DHT22;5202;49.138;10.090;2022-07-19T13:35:39;36.80;28.90
10314;DHT22;5202;49.138;10.090;2022-07-19T13:38:09;36.80;29.70
10314;DHT22;5202;49.138;10.090;2022-07-19T13:40:38;36.80;28.90
10314;DHT22;5202;49.138;10.090;2022-07-19T13:43:07;36.80;30.00
10314;DHT22;5202;49.138;10.090;2022-07-19T13:45:35;36.90;29.20
10314;DHT22;5202;49.138;10.090;2022-07-19T13:48:04;36.70;29.20
10314;DHT22;5202;49.138;10.090;2022-07-19T13:50:33;36.70;28.60
10314;DHT22;5202;49.138;10.090;2022-07-19T13:53:01;36.80;28.90
10314;DHT22;5202;49.138;10.090;2022-07-19T13:55:31;36.80;28.80
10314;DHT22;5202;49.138;10.090;2022-07-19T13:57:59;36.80;28.40
10314;DHT22;5202;49.138;10.090;2022-07-19T14:00:29;36.90;29.10
10314;DHT22;5202;49.138;10.090;2022-07-19T14:02:57;37.00;28.30
10314;DHT22;5202;49.138;10.090;2022-07-19T14:05:26;36.50;28.50
10314;DHT22;5202;49.138;10.090;2022-07-19T14:07:54;36.50;28.60
10314;DHT22;5202;49.138;10.090;2022-07-19T14:10:23;36.60;29.00
10314;DHT22;5202;49.138;10.090;2022-07-19T14:12:52;36.80;29.00
10314;DHT22;5202;49.138;10.090;2022-07-19T14:15:41;36.90;28.40
10314;DHT22;5202;49.138;10.090;2022-07-19T14:18:10;37.00;27.90
10314;DHT22;5202;49.138;10.090;2022-07-19T14:20:40;36.80;27.80
10314;DHT22;5202;49.138;10.090;2022-07-19T14:23:09;36.80;28.60
10314;DHT22;5202;49.138;10.090;2022-07-19T14:25:38;36.90;28.30
10314;DHT22;5202;49.138;10.090;2022-07-19T14:28:17;37.00;28.80
10314;DHT22;5202;49.138;10.090;2022-07-19T14:30:46;37.00;28.60
10314;DHT22;5202;49.138;10.090;2022-07-19T14:33:14;37.00;29.10
10314;DHT22;5202;49.138;10.090;2022-07-19T14:35:43;37.10;28.40
10314;DHT22;5202;49.138;10.090;2022-07-19T14:38:11;37.20;28.50
10314;DHT22;5202;49.138;10.090;2022-07-19T14:40:39;37.20;27.80
10314;DHT22;5202;49.138;10.090;2022-07-19T14:43:08;37.20;28.30
10314;DHT22;5202;49.138;10.090;2022-07-19T14:45:38;37.20;28.60
10314;DHT22;5202;49.138;10.090;2022-07-19T14:48:06;37.20;28.00
10314;DHT22;5202;49.138;10.090;2022-07-19T14:50:35;37.20;28.00
10314;DHT22;5202;49.138;10.090;2022-07-19T14:53:03;37.10;27.70
10314;DHT22;5202;49.138;10.090;2022-07-19T14:55:32;36.90;26.60
10314;DHT22;5202;49.138;10.090;2022-07-19T14:58:00;36.50;27.40
10314;DHT22;5202;49.138;10.090;2022-07-19T15:00:28;36.50;28.80
10314;DHT22;5202;49.138;10.090;2022-07-19T15:02:58;36.50;28.40
10314;DHT22;5202;49.138;10.090;2022-07-19T15:05:27;36.50;27.60
10314;DHT22;5202;49.138;10.090;2022-07-19T15:07:55;36.50;27.70
10314;DHT22;5202;49.138;10.090;2022-07-19T15:10:23;36.60;27.60
10314;DHT22;5202;49.138;10.090;2022-07-19T15:12:52;36.50;27.70
10314;DHT22;5202;49.138;10.090;2022-07-19T15:15:21;36.30;26.90
10314;DHT22;5202;49.138;10.090;2022-07-19T15:17:49;36.10;27.10
10314;DHT22;5202;49.138;10.090;2022-07-19T15:20:26;36.10;28.20
10314;DHT22;5202;49.138;10.090;2022-07-19T15:22:54;36.10;28.20
10314;DHT22;5202;49.138;10.090;2022-07-19T15:25:23;36.20;28.30
10314;DHT22;5202;49.138;10.090;2022-07-19T15:27:52;36.20;27.80
10314;DHT22;5202;49.138;10.090;2022-07-19T15:30:21;36.10;27.80
10314;DHT22;5202;49.138;10.090;2022-07-19T15:32:50;35.90;28.80
10314;DHT22;5202;49.138;10.090;2022-07-19T15:35:19;35.80;28.30
10314;DHT22;5202;49.138;10.090;2022-07-19T15:37:49;35.90;29.20
10314;DHT22;5202;49.138;10.090;2022-07-19T15:40:17;35.90;29.10
10314;DHT22;5202;49.138;10.090;2022-07-19T15:42:49;35.70;28.00
10314;DHT22;5202;49.138;10.090;2022-07-19T15:45:20;35.60;28.10
10314;DHT22;5202;49.138;10.090;2022-07-19T15:47:49;35.60;28.80
10314;DHT22;5202;49.138;10.090;2022-07-19T15:50:18;35.50;28.40
10314;DHT22;5202;49.138;10.090;2022-07-19T15:52:48;35.40;29.10